createdAt,value
2018-07-08T00:00:50.246Z,24.19
2018-07-08T00:15:50.528Z,24.20
2018-07-08T00:30:50.238Z,24.17
2018-07-08T00:45:49.995Z,24.02
2018-07-08T01:00:50.665Z,23.98
2018-07-08T01:15:50.618Z,23.99
2018-07-08T01:30:50.545Z,23.96
2018-07-08T01:45:50.517Z,23.94
2018-07-08T02:00:51.070Z,23.95
2018-07-08T02:15:53.005Z,23.91
2018-07-08T02:30:50.827Z,23.88
2018-07-08T02:45:50.785Z,23.84
2018-07-08T03:00:50.306Z,23.81
2018-07-08T03:15:50.145Z,23.82
2018-07-08T03:30:50.016Z,23.82
2018-07-08T03:45:50.191Z,23.79
2018-07-08T04:00:50.617Z,23.86
2018-07-08T04:15:49.921Z,23.13
2018-07-08T04:30:49.928Z,22.31
2018-07-08T04:45:50.281Z,21.95
2018-07-08T05:00:50.795Z,21.91
2018-07-08T05:15:51.736Z,21.97
2018-07-08T05:30:50.660Z,21.97
2018-07-08T05:45:50.731Z,21.83
2018-07-08T06:00:50.641Z,21.71
2018-07-08T06:15:50.170Z,21.68
2018-07-08T06:30:50.050Z,21.65
2018-07-08T06:45:49.964Z,21.93
2018-07-08T07:00:50.485Z,22.07
2018-07-08T07:15:49.950Z,21.91
2018-07-08T07:30:50.471Z,22.10
2018-07-08T07:45:49.832Z,23.20
2018-07-08T08:00:51.027Z,23.92
2018-07-08T08:15:51.086Z,24.26
2018-07-08T08:30:51.051Z,24.55
2018-07-08T08:45:52.386Z,24.81
2018-07-08T09:00:52.375Z,24.82
2018-07-08T09:15:50.467Z,24.81
2018-07-08T09:30:50.166Z,23.99
2018-07-08T09:45:50.133Z,22.58
2018-07-08T10:00:50.476Z,21.98
2018-07-08T10:15:51.510Z,21.63
2018-07-08T10:30:50.944Z,21.51
2018-07-08T10:45:49.889Z,21.53
2018-07-08T11:00:51.745Z,21.57
2018-07-08T11:15:50.849Z,21.92
2018-07-08T11:30:54.069Z,22.33
2018-07-08T11:45:50.929Z,22.64
2018-07-08T12:00:50.389Z,23.04
2018-07-08T12:15:50.344Z,23.74
2018-07-08T12:30:50.400Z,24.57
2018-07-08T12:45:50.352Z,25.11
2018-07-08T13:00:50.752Z,25.04
2018-07-08T13:15:50.719Z,24.47
2018-07-08T13:30:52.173Z,24.09
2018-07-08T13:45:49.423Z,23.10
2018-07-08T14:00:50.076Z,22.24
2018-07-08T14:15:49.912Z,21.69
2018-07-08T14:30:51.056Z,21.43
2018-07-08T14:45:50.886Z,21.27
2018-07-08T15:00:50.288Z,21.36
2018-07-08T15:15:50.223Z,21.21
2018-07-08T15:30:52.773Z,21.95
2018-07-08T15:45:53.141Z,23.37
2018-07-08T16:00:51.395Z,23.48
2018-07-08T16:15:50.754Z,22.34
2018-07-08T16:30:50.613Z,21.40
2018-07-08T16:45:50.721Z,20.71
2018-07-08T17:00:51.032Z,20.43
2018-07-08T17:15:52.985Z,20.29
2018-07-08T17:30:51.948Z,20.16
2018-07-08T17:45:50.785Z,20.01
2018-07-08T18:00:50.380Z,19.87
2018-07-08T18:15:51.253Z,19.71
2018-07-08T18:30:53.368Z,19.56
2018-07-08T18:45:53.922Z,19.47
2018-07-08T19:00:50.760Z,19.35
2018-07-08T19:15:50.878Z,21.88
2018-07-08T19:30:51.037Z,22.79
2018-07-08T19:45:50.340Z,23.18
2018-07-08T20:00:51.282Z,23.26
2018-07-08T20:15:51.169Z,22.37
2018-07-08T20:30:58.909Z,21.10
2018-07-08T20:45:51.138Z,20.38
2018-07-08T21:00:55.752Z,19.88
2018-07-08T21:15:52.766Z,19.99
2018-07-08T21:30:52.688Z,20.16
2018-07-08T21:45:52.752Z,20.27
2018-07-08T22:15:51.097Z,20.45
2018-07-08T22:30:51.172Z,20.55
2018-07-08T22:45:51.042Z,20.62
2018-07-08T23:15:51.369Z,20.46
2018-07-08T23:30:51.461Z,20.45
2018-07-08T23:45:51.396Z,20.50
